Terminal Aerodrome Forecast
Issued by NWS Louisville, KY

Home | Current Version | Previous Version | Text Only | Print | Product List | Glossary On
Versions: 1 2 3 4 5 6 7 8 9 10 11 12 13 14 15 16 17
886
FTUS43 KLMK 230345 AAB
TAFSDF
TAF AMD
KSDF 230345Z 2304/2406 16009KT P6SM SCT015 BKN250
      TEMPO 2304/2306 BKN015
     FM230900 20011KT P6SM VCSH BKN015 OVC030
     FM231800 21011G19KT 4SM SHRA VCTS BKN020CB OVC025
     FM240200 31004KT 4SM SHRA OVC015=

USA.gov is the U.S. government's official web portal to all federal, state and local government web resources and services.